Time;durP1;ratioP1;P1;durP2;ratioP2;P2;SDS_P1;SDS_P2;PMS_P1;PMS_P2;Temp;Humidity;BMP_temperature;BMP_pressure;BME280_temperature;BME280_humidity;BME280_pressure;Samples;Min_cycle;Max_cycle;Signal;HPM_P1;HPM_P2
2023/02/18 00:00:48;;;;;;;4.97;3.92;;;;;;;;;;2081915;28;20022;-79
2023/02/18 00:02:07;;;;;;;4.28;3.92;;;;;;;;;;2080526;28;20437;-78
2023/02/18 00:03:26;;;;;;;3.95;3.65;;;;;;;;;;2084482;28;20448;-79
2023/02/18 00:04:45;;;;;;;3.67;3.38;;;;;;;;;;2083541;28;20026;-78
2023/02/18 00:06:11;;;;;;;2.95;2.63;;;;;;;;;;2082616;28;20100;-78
2023/02/18 00:07:34;;;;;;;3.65;3.30;;;;;;;;;;2080304;28;20418;-79
2023/02/18 00:08:53;;;;;;;3.33;3.03;;;;;;;;;;2078896;28;20094;-78
2023/02/18 00:10:14;;;;;;;2.90;2.70;;;;;;;;;;2082280;28;20037;-79
2023/02/18 00:11:33;;;;;;;3.35;2.83;;;;;;;;;;2083688;28;20115;-79
2023/02/18 00:12:53;;;;;;;3.10;2.90;;;;;;;;;;2081201;28;20441;-78
2023/02/18 00:14:13;;;;;;;3.03;2.78;;;;;;;;;;2084222;28;20038;-78
2023/02/18 00:15:34;;;;;;;2.65;2.45;;;;;;;;;;2081360;28;20021;-78
2023/02/18 00:16:53;;;;;;;2.47;2.28;;;;;;;;;;2079791;28;20034;-79
2023/02/18 00:18:11;;;;;;;2.80;2.60;;;;;;;;;;2080825;28;20127;-79
2023/02/18 00:19:32;;;;;;;2.75;2.55;;;;;;;;;;2083612;28;20033;-79
2023/02/18 00:20:50;;;;;;;3.28;2.97;;;;;;;;;;2079058;28;20033;-79
2023/02/18 00:22:10;;;;;;;3.25;3.00;;;;;;;;;;2084869;28;20021;-78
2023/02/18 00:23:29;;;;;;;2.67;2.05;;;;;;;;;;2084842;28;20026;-78
2023/02/18 00:24:48;;;;;;;2.60;2.40;;;;;;;;;;2082948;28;20021;-78
2023/02/18 00:26:09;;;;;;;4.07;2.88;;;;;;;;;;2081482;28;20025;-79
2023/02/18 00:27:28;;;;;;;3.20;2.88;;;;;;;;;;2084809;28;20017;-78
2023/02/18 00:28:47;;;;;;;3.20;2.90;;;;;;;;;;2085106;28;20414;-78
2023/02/18 00:30:07;;;;;;;3.75;3.00;;;;;;;;;;2083857;28;20112;-79
2023/02/18 00:31:28;;;;;;;4.32;3.33;;;;;;;;;;2083088;28;20021;-78
2023/02/18 00:32:47;;;;;;;4.28;2.97;;;;;;;;;;2087619;28;20509;-78
2023/02/18 00:34:06;;;;;;;3.97;3.55;;;;;;;;;;2084437;28;20108;-79
2023/02/18 00:35:25;;;;;;;4.00;2.22;;;;;;;;;;2084893;28;20029;-78
2023/02/18 00:36:44;;;;;;;3.85;3.03;;;;;;;;;;2084108;28;20017;-79
2023/02/18 00:38:03;;;;;;;3.88;3.20;;;;;;;;;;2086139;28;20624;-78
2023/02/18 00:39:22;;;;;;;3.85;3.50;;;;;;;;;;2086184;28;20045;-78
2023/02/18 00:40:42;;;;;;;4.15;3.65;;;;;;;;;;2084856;28;20033;-79
2023/02/18 00:42:00;;;;;;;3.97;3.67;;;;;;;;;;2085624;28;20040;-78
2023/02/18 00:43:19;;;;;;;3.53;3.22;;;;;;;;;;2090993;28;20064;-78
2023/02/18 00:44:38;;;;;;;3.92;3.63;;;;;;;;;;2089028;28;20022;-79
2023/02/18 00:45:57;;;;;;;4.40;3.60;;;;;;;;;;2081192;28;20116;-78
2023/02/18 00:47:16;;;;;;;3.88;2.97;;;;;;;;;;2084528;28;20028;-79
2023/02/18 00:48:35;;;;;;;5.80;3.40;;;;;;;;;;2084052;28;20410;-78
2023/02/18 00:49:54;;;;;;;3.55;2.58;;;;;;;;;;2086964;28;20398;-79
2023/02/18 00:51:13;;;;;;;2.95;2.42;;;;;;;;;;2082543;28;20514;-79
2023/02/18 00:52:32;;;;;;;2.97;2.78;;;;;;;;;;2086495;28;20112;-79
2023/02/18 00:53:51;;;;;;;3.33;2.95;;;;;;;;;;2084211;28;20491;-79
2023/02/18 00:55:10;;;;;;;3.42;3.08;;;;;;;;;;2084940;28;20041;-78
2023/02/18 00:56:29;;;;;;;4.03;3.55;;;;;;;;;;2084855;28;20029;-79
2023/02/18 00:57:48;;;;;;;3.38;2.88;;;;;;;;;;2085254;28;20029;-79
2023/02/18 00:59:07;;;;;;;1.73;1.63;;;;;;;;;;2084776;28;20041;-78
2023/02/18 01:00:26;;;;;;;2.67;2.47;;;;;;;;;;2086194;28;20033;-79
2023/02/18 01:01:45;;;;;;;3.10;2.80;;;;;;;;;;2083438;28;20101;-79
2023/02/18 01:03:06;;;;;;;2.85;2.65;;;;;;;;;;2080721;28;20033;-79
2023/02/18 01:04:25;;;;;;;2.40;2.20;;;;;;;;;;2085974;28;20049;-78
2023/02/18 01:05:44;;;;;;;1.90;1.75;;;;;;;;;;2085587;28;20026;-78
2023/02/18 01:07:03;;;;;;;2.20;2.00;;;;;;;;;;2083331;28;20025;-78
2023/02/18 01:08:22;;;;;;;2.00;1.90;;;;;;;;;;2086417;28;20033;-78
2023/02/18 01:09:41;;;;;;;2.20;2.00;;;;;;;;;;2083975;28;20026;-78
2023/02/18 01:11:00;;;;;;;3.17;2.38;;;;;;;;;;2081026;28;20026;-78
2023/02/18 01:12:19;;;;;;;1.40;1.30;;;;;;;;;;2081618;28;20042;-78
2023/02/18 01:13:39;;;;;;;1.63;1.48;;;;;;;;;;2084650;28;20401;-78
2023/02/18 01:14:58;;;;;;;1.23;1.13;;;;;;;;;;2085064;28;20403;-78
2023/02/18 01:16:17;;;;;;;1.20;1.10;;;;;;;;;;2083543;28;20112;-78
2023/02/18 01:17:36;;;;;;;1.52;1.42;;;;;;;;;;2079508;28;20041;-79
2023/02/18 01:18:55;;;;;;;1.00;1.00;;;;;;;;;;2082487;28;20030;-78
2023/02/18 01:20:14;;;;;;;0.47;0.47;;;;;;;;;;2082410;28;20069;-78
2023/02/18 01:21:33;;;;;;;0.38;0.38;;;;;;;;;;2085936;28;20498;-79
2023/02/18 01:22:52;;;;;;;1.13;0.93;;;;;;;;;;2083393;28;20116;-78
2023/02/18 01:24:11;;;;;;;1.30;1.20;;;;;;;;;;2080345;28;20037;-78
2023/02/18 01:25:30;;;;;;;1.40;1.30;;;;;;;;;;2081860;28;20029;-78
2023/02/18 01:26:49;;;;;;;1.00;0.80;;;;;;;;;;2082718;28;20498;-79
2023/02/18 01:28:08;;;;;;;0.80;0.80;;;;;;;;;;2085069;28;20060;-79
2023/02/18 01:29:27;;;;;;;0.50;0.50;;;;;;;;;;2079840;28;20054;-79
2023/02/18 01:30:46;;;;;;;0.75;0.75;;;;;;;;;;2084763;28;20025;-79
2023/02/18 01:32:05;;;;;;;0.98;0.98;;;;;;;;;;2085389;28;20469;-78
2023/02/18 01:33:24;;;;;;;0.88;0.88;;;;;;;;;;2084601;28;20478;-79
2023/02/18 01:34:43;;;;;;;0.73;0.70;;;;;;;;;;2089951;28;20037;-79
2023/02/18 01:36:02;;;;;;;1.02;0.68;;;;;;;;;;2087128;28;20025;-79
2023/02/18 01:37:21;;;;;;;0.98;0.98;;;;;;;;;;2084821;28;20041;-79
2023/02/18 01:38:40;;;;;;;0.77;0.70;;;;;;;;;;2085863;28;20037;-79
2023/02/18 01:39:59;;;;;;;0.77;0.77;;;;;;;;;;2085446;28;20042;-79
2023/02/18 01:41:18;;;;;;;0.65;0.50;;;;;;;;;;2084231;28;20112;-79
2023/02/18 01:42:37;;;;;;;0.55;0.55;;;;;;;;;;2081742;28;20034;-79
2023/02/18 01:44:14;;;;;;;0.70;0.70;;;;;;;;;;2088166;28;20497;-78
2023/02/18 01:45:36;;;;;;;0.80;0.80;;;;;;;;;;2084976;28;20084;-78
2023/02/18 01:46:55;;;;;;;0.40;0.40;;;;;;;;;;2085015;28;20021;-79
2023/02/18 01:48:14;;;;;;;0.65;0.50;;;;;;;;;;2083386;28;20037;-79
2023/02/18 01:49:35;;;;;;;0.40;0.40;;;;;;;;;;2082744;28;20334;-78
2023/02/18 01:51:03;;;;;;;0.38;0.38;;;;;;;;;;2084346;28;20037;-79
2023/02/18 01:52:24;;;;;;;0.38;0.38;;;;;;;;;;2085722;28;20030;-79
2023/02/18 01:53:53;;;;;;;0.40;0.40;;;;;;;;;;2082492;28;20030;-79
2023/02/18 01:55:12;;;;;;;0.40;0.40;;;;;;;;;;2084401;28;20049;-79
2023/02/18 01:56:37;;;;;;;0.38;0.38;;;;;;;;;;2084075;28;20042;-79
2023/02/18 01:57:56;;;;;;;0.20;0.20;;;;;;;;;;2086407;28;20029;-79
2023/02/18 01:59:36;;;;;;;0.20;0.20;;;;;;;;;;2084975;28;20037;-79
2023/02/18 02:00:54;;;;;;;0.52;0.25;;;;;;;;;;2082942;28;20517;-79
2023/02/18 02:02:15;;;;;;;0.20;0.20;;;;;;;;;;2084074;28;20041;-79
2023/02/18 02:03:34;;;;;;;0.25;0.25;;;;;;;;;;2084540;28;20021;-78
2023/02/18 02:04:53;;;;;;;0.40;0.40;;;;;;;;;;2083989;28;20029;-79
2023/02/18 02:06:17;;;;;;;0.38;0.38;;;;;;;;;;2084562;28;20103;-80
2023/02/18 02:07:36;;;;;;;0.28;0.28;;;;;;;;;;2084999;28;20601;-79
2023/02/18 02:08:57;;;;;;;1.45;0.25;;;;;;;;;;2081007;28;20080;-79
2023/02/18 02:10:16;;;;;;;0.30;0.30;;;;;;;;;;2081464;28;20025;-79
2023/02/18 02:11:42;;;;;;;0.28;0.28;;;;;;;;;;2083082;28;20037;-79
2023/02/18 02:13:09;;;;;;;0.20;0.20;;;;;;;;;;2081725;28;20025;-79
2023/02/18 02:14:37;;;;;;;0.40;0.40;;;;;;;;;;2087885;28;20160;-78
2023/02/18 02:15:59;;;;;;;0.35;0.35;;;;;;;;;;2085659;28;20025;-78
2023/02/18 02:17:43;;;;;;;1.65;0.35;;;;;;;;;;2085145;28;20021;-79
2023/02/18 02:19:14;;;;;;;1.25;0.50;;;;;;;;;;2081255;28;20041;-78
2023/02/18 02:20:43;;;;;;;0.50;0.50;;;;;;;;;;2082797;28;20306;-78
2023/02/18 02:22:21;;;;;;;2.53;0.73;;;;;;;;;;2085588;28;20030;-79
2023/02/18 02:23:52;;;;;;;0.60;0.60;;;;;;;;;;2085935;28;20022;-79
2023/02/18 02:25:14;;;;;;;0.40;0.40;;;;;;;;;;2083896;28;20034;-79
2023/02/18 02:26:48;;;;;;;0.60;0.60;;;;;;;;;;2081916;28;20017;-79
2023/02/18 02:28:29;;;;;;;0.70;0.70;;;;;;;;;;2079702;28;20556;-79
2023/02/18 02:30:06;;;;;;;0.70;0.70;;;;;;;;;;2082784;28;20428;-79
2023/02/18 02:31:49;;;;;;;0.60;0.60;;;;;;;;;;2083548;28;20557;-79
2023/02/18 02:33:08;;;;;;;0.60;0.60;;;;;;;;;;2084914;28;20073;-78
2023/02/18 02:34:28;;;;;;;0.70;0.70;;;;;;;;;;2084779;28;20029;-80
2023/02/18 02:36:00;;;;;;;0.80;0.80;;;;;;;;;;2085459;28;20402;-78
2023/02/18 02:37:24;;;;;;;0.60;0.60;;;;;;;;;;2082892;28;20029;-79
2023/02/18 02:38:49;;;;;;;0.50;0.50;;;;;;;;;;2084183;28;20029;-79
2023/02/18 02:40:23;;;;;;;0.55;0.55;;;;;;;;;;2080403;28;20126;-78
2023/02/18 02:41:57;;;;;;;0.52;0.52;;;;;;;;;;2085198;28;20487;-78
2023/02/18 02:43:28;;;;;;;0.75;0.60;;;;;;;;;;2084063;28;20089;-78
2023/02/18 02:44:55;;;;;;;0.50;0.50;;;;;;;;;;2086268;28;20061;-79
2023/02/18 02:46:14;;;;;;;0.43;0.43;;;;;;;;;;2084154;28;20525;-78
2023/02/18 02:47:41;;;;;;;0.52;0.52;;;;;;;;;;2084380;28;20556;-78
2023/02/18 02:49:08;;;;;;;0.70;0.70;;;;;;;;;;2084864;28;20029;-78
2023/02/18 02:50:32;;;;;;;0.70;0.70;;;;;;;;;;2086656;28;20619;-78
2023/02/18 02:52:01;;;;;;;0.40;0.40;;;;;;;;;;2084603;28;20133;-79
2023/02/18 02:53:25;;;;;;;0.60;0.60;;;;;;;;;;2089864;28;20491;-78
2023/02/18 02:54:43;;;;;;;0.70;0.70;;;;;;;;;;2084690;28;20440;-79
2023/02/18 02:56:03;;;;;;;0.60;0.60;;;;;;;;;;2085224;28;20026;-79
2023/02/18 02:57:22;;;;;;;0.40;0.40;;;;;;;;;;2083065;28;20056;-78
2023/02/18 02:58:42;;;;;;;0.60;0.60;;;;;;;;;;2083632;28;20029;-79
2023/02/18 03:00:09;;;;;;;0.70;0.70;;;;;;;;;;2084528;28;20022;-78
2023/02/18 03:01:51;;;;;;;2.05;0.65;;;;;;;;;;2082360;28;20063;-79
2023/02/18 03:03:25;;;;;;;0.47;0.47;;;;;;;;;;2073863;28;20053;-78
2023/02/18 03:04:53;;;;;;;0.57;0.57;;;;;;;;;;2083116;28;20052;-79
2023/02/18 03:06:30;;;;;;;0.50;0.50;;;;;;;;;;2082779;28;20065;-78
2023/02/18 03:07:49;;;;;;;0.40;0.40;;;;;;;;;;2084749;28;20029;-78
2023/02/18 03:09:08;;;;;;;0.40;0.40;;;;;;;;;;2085112;28;20148;-79
2023/02/18 03:10:35;;;;;;;0.40;0.40;;;;;;;;;;2082366;28;20029;-78
2023/02/18 03:12:02;;;;;;;0.30;0.30;;;;;;;;;;2093135;28;20064;-78
2023/02/18 03:13:33;;;;;;;0.20;0.20;;;;;;;;;;2077377;28;20029;-79
2023/02/18 03:15:01;;;;;;;1.13;0.25;;;;;;;;;;2084152;28;20398;-78
2023/02/18 03:16:20;;;;;;;0.30;0.30;;;;;;;;;;2083496;28;20041;-78
2023/02/18 03:17:50;;;;;;;0.20;0.20;;;;;;;;;;2081611;28;20052;-79
2023/02/18 03:19:13;;;;;;;0.30;0.30;;;;;;;;;;2081922;28;20033;-78
2023/02/18 03:20:32;;;;;;;0.20;0.20;;;;;;;;;;2082150;28;20033;-79
2023/02/18 03:21:55;;;;;;;0.20;0.20;;;;;;;;;;2084553;28;20494;-79
2023/02/18 03:23:16;;;;;;;0.10;0.10;;;;;;;;;;2083257;28;20021;-79
2023/02/18 03:24:38;;;;;;;0.20;0.20;;;;;;;;;;2083664;28;20025;-79
2023/02/18 03:25:58;;;;;;;0.75;0.20;;;;;;;;;;2082100;28;20503;-78
2023/02/18 03:27:22;;;;;;;0.20;0.20;;;;;;;;;;2085086;28;20033;-78
2023/02/18 03:28:41;;;;;;;0.20;0.20;;;;;;;;;;2083288;28;20053;-78
2023/02/18 03:30:11;;;;;;;0.30;0.30;;;;;;;;;;2082918;28;20025;-78
2023/02/18 03:31:31;;;;;;;0.75;0.40;;;;;;;;;;2082155;28;20385;-78
2023/02/18 03:32:55;;;;;;;0.20;0.20;;;;;;;;;;2084717;28;20514;-78
2023/02/18 03:34:20;;;;;;;0.30;0.30;;;;;;;;;;2080108;28;20037;-78
2023/02/18 03:35:41;;;;;;;1.23;0.17;;;;;;;;;;2078538;28;20022;-78
2023/02/18 03:37:00;;;;;;;0.20;0.20;;;;;;;;;;2082451;28;20490;-78
2023/02/18 03:38:23;;;;;;;0.17;0.17;;;;;;;;;;2084483;28;20044;-78
2023/02/18 03:39:44;;;;;;;0.10;0.10;;;;;;;;;;2080801;28;20558;-78
2023/02/18 03:41:04;;;;;;;0.22;0.22;;;;;;;;;;2065568;28;20054;-79
2023/02/18 03:42:27;;;;;;;0.20;0.20;;;;;;;;;;2075177;28;20029;-78
2023/02/18 03:43:50;;;;;;;0.20;0.20;;;;;;;;;;2078959;28;20502;-79
2023/02/18 03:45:09;;;;;;;0.52;0.20;;;;;;;;;;2078590;28;20025;-78
2023/02/18 03:46:29;;;;;;;0.10;0.10;;;;;;;;;;2080884;28;20029;-78
2023/02/18 03:47:48;;;;;;;0.20;0.20;;;;;;;;;;2085284;28;20028;-79
2023/02/18 03:49:07;;;;;;;0.13;0.10;;;;;;;;;;2084843;28;21806;-78
2023/02/18 03:50:26;;;;;;;0.38;0.35;;;;;;;;;;2082634;28;20509;-78
2023/02/18 03:51:46;;;;;;;0.20;0.20;;;;;;;;;;2080811;28;20041;-79
2023/02/18 03:53:05;;;;;;;0.40;0.22;;;;;;;;;;2085151;28;20033;-79
2023/02/18 03:54:23;;;;;;;0.20;0.20;;;;;;;;;;2081748;28;20371;-79
2023/02/18 03:55:42;;;;;;;0.10;0.10;;;;;;;;;;2083805;28;20037;-79
2023/02/18 03:57:01;;;;;;;0.10;0.10;;;;;;;;;;2082811;28;20577;-78
2023/02/18 03:58:20;;;;;;;0.10;0.10;;;;;;;;;;2083933;28;20030;-78
2023/02/18 03:59:39;;;;;;;0.30;0.30;;;;;;;;;;2078955;28;20030;-79
2023/02/18 04:00:58;;;;;;;0.10;0.10;;;;;;;;;;2080183;28;20108;-78
2023/02/18 04:02:17;;;;;;;0.13;0.13;;;;;;;;;;2082041;28;20064;-78
2023/02/18 04:03:35;;;;;;;0.28;0.28;;;;;;;;;;2081854;28;20017;-79
2023/02/18 04:04:54;;;;;;;0.15;0.15;;;;;;;;;;2081138;28;20418;-78
2023/02/18 04:06:13;;;;;;;0.13;0.13;;;;;;;;;;2084324;28;20029;-78
2023/02/18 04:07:32;;;;;;;0.90;0.30;;;;;;;;;;2083638;28;20033;-79
2023/02/18 04:08:51;;;;;;;0.20;0.20;;;;;;;;;;2086589;28;20092;-78
2023/02/18 04:10:10;;;;;;;0.80;0.40;;;;;;;;;;2084471;28;20033;-78
2023/02/18 04:11:30;;;;;;;0.30;0.30;;;;;;;;;;2086449;28;20029;-78
2023/02/18 04:12:49;;;;;;;0.20;0.20;;;;;;;;;;2083342;28;20033;-78
2023/02/18 04:14:07;;;;;;;0.32;0.30;;;;;;;;;;2083122;28;20108;-79
2023/02/18 04:15:26;;;;;;;0.40;0.40;;;;;;;;;;2085154;28;20030;-78
2023/02/18 04:16:45;;;;;;;0.20;0.20;;;;;;;;;;2083251;28;20104;-78
2023/02/18 04:18:04;;;;;;;0.25;0.25;;;;;;;;;;2083966;28;20044;-78
2023/02/18 04:19:23;;;;;;;0.40;0.40;;;;;;;;;;2084524;28;20041;-78
2023/02/18 04:20:42;;;;;;;0.30;0.30;;;;;;;;;;2082651;28;20026;-78
2023/02/18 04:22:01;;;;;;;0.40;0.40;;;;;;;;;;2086992;28;20042;-78
2023/02/18 04:23:20;;;;;;;0.40;0.40;;;;;;;;;;2084115;28;20514;-78
2023/02/18 04:24:39;;;;;;;0.30;0.30;;;;;;;;;;2084313;28;20037;-78
2023/02/18 04:25:58;;;;;;;0.20;0.20;;;;;;;;;;2084605;28;20502;-78
2023/02/18 04:27:17;;;;;;;0.30;0.30;;;;;;;;;;2084590;28;20033;-79
2023/02/18 04:28:36;;;;;;;0.30;0.30;;;;;;;;;;2084276;28;20041;-79
2023/02/18 04:29:54;;;;;;;0.30;0.30;;;;;;;;;;2083685;28;20030;-77
2023/02/18 04:31:14;;;;;;;0.22;0.22;;;;;;;;;;2080812;28;20033;-78
2023/02/18 04:32:33;;;;;;;0.10;0.10;;;;;;;;;;2081479;28;20465;-78
2023/02/18 04:33:52;;;;;;;0.13;0.13;;;;;;;;;;2082176;28;20494;-78
2023/02/18 04:35:11;;;;;;;0.30;0.30;;;;;;;;;;2086970;28;20033;-79
2023/02/18 04:36:30;;;;;;;0.20;0.20;;;;;;;;;;2087635;28;20490;-79
2023/02/18 04:37:49;;;;;;;0.17;0.17;;;;;;;;;;2086284;28;20032;-78
2023/02/18 04:39:08;;;;;;;0.22;0.22;;;;;;;;;;2084641;28;20041;-78
2023/02/18 04:40:29;;;;;;;0.10;0.10;;;;;;;;;;2084034;28;20490;-78
2023/02/18 04:41:48;;;;;;;0.10;0.10;;;;;;;;;;2086847;28;20518;-78
2023/02/18 04:43:07;;;;;;;0.15;0.15;;;;;;;;;;2086621;28;20029;-78
2023/02/18 04:44:26;;;;;;;0.20;0.20;;;;;;;;;;2085606;28;20021;-78
2023/02/18 04:45:45;;;;;;;0.10;0.10;;;;;;;;;;2086074;28;20021;-78
2023/02/18 04:47:04;;;;;;;0.10;0.10;;;;;;;;;;2084886;28;20112;-79
2023/02/18 04:48:24;;;;;;;0.15;0.15;;;;;;;;;;2083277;28;20021;-79
2023/02/18 04:49:42;;;;;;;0.10;0.10;;;;;;;;;;2083971;28;21204;-79
2023/02/18 04:51:02;;;;;;;0.20;0.20;;;;;;;;;;2082956;28;20041;-78
2023/02/18 04:52:21;;;;;;;0.10;0.10;;;;;;;;;;2085153;28;20089;-78
2023/02/18 04:53:40;;;;;;;0.10;0.10;;;;;;;;;;2083501;28;20490;-78
2023/02/18 04:54:59;;;;;;;0.00;0.00;;;;;;;;;;2079379;28;20148;-77
2023/02/18 04:56:18;;;;;;;0.10;0.10;;;;;;;;;;2085313;28;20021;-79
2023/02/18 04:57:37;;;;;;;0.10;0.10;;;;;;;;;;2084758;28;20029;-78
2023/02/18 04:58:56;;;;;;;0.00;0.00;;;;;;;;;;2074482;28;20038;-78
2023/02/18 05:00:16;;;;;;;0.10;0.10;;;;;;;;;;2075184;28;20061;-79
2023/02/18 05:01:35;;;;;;;0.03;0.03;;;;;;;;;;2084204;28;20402;-78
2023/02/18 05:02:54;;;;;;;0.10;0.10;;;;;;;;;;2082545;28;20033;-78
2023/02/18 05:04:13;;;;;;;0.10;0.10;;;;;;;;;;2082319;28;20037;-78
2023/02/18 05:05:32;;;;;;;0.00;0.00;;;;;;;;;;2084233;28;20600;-78
2023/02/18 05:06:51;;;;;;;0.00;0.00;;;;;;;;;;2083923;28;20029;-78
2023/02/18 05:08:10;;;;;;;0.75;0.10;;;;;;;;;;2086249;28;20029;-78
2023/02/18 05:09:28;;;;;;;0.00;0.00;;;;;;;;;;2084117;28;20029;-79
2023/02/18 05:10:47;;;;;;;2.00;0.10;;;;;;;;;;2087929;28;20032;-78
2023/02/18 05:12:06;;;;;;;0.05;0.00;;;;;;;;;;2085326;28;20108;-78
2023/02/18 05:13:25;;;;;;;0.52;0.10;;;;;;;;;;2086533;28;20485;-78
2023/02/18 05:14:44;;;;;;;0.03;0.03;;;;;;;;;;2085095;28;20410;-78
2023/02/18 05:16:03;;;;;;;0.10;0.10;;;;;;;;;;2085572;28;20195;-79
2023/02/18 05:17:22;;;;;;;0.00;0.00;;;;;;;;;;2085072;28;20518;-78
2023/02/18 05:18:41;;;;;;;0.10;0.10;;;;;;;;;;2079878;28;20479;-78
2023/02/18 05:20:00;;;;;;;0.10;0.10;;;;;;;;;;2080328;28;20117;-78
2023/02/18 05:21:19;;;;;;;0.10;0.10;;;;;;;;;;2082356;28;20582;-78
2023/02/18 05:22:38;;;;;;;0.10;0.10;;;;;;;;;;2083457;28;20025;-78
2023/02/18 05:23:57;;;;;;;0.10;0.10;;;;;;;;;;2084009;28;20013;-78
2023/02/18 05:25:16;;;;;;;0.00;0.00;;;;;;;;;;2084169;28;20021;-78
2023/02/18 05:26:35;;;;;;;0.00;0.00;;;;;;;;;;2083904;28;20021;-78
2023/02/18 05:27:54;;;;;;;0.10;0.10;;;;;;;;;;2083197;28;20033;-78
2023/02/18 05:29:13;;;;;;;0.10;0.10;;;;;;;;;;2082709;28;20144;-78
2023/02/18 05:30:32;;;;;;;0.10;0.10;;;;;;;;;;2082664;28;20029;-78
2023/02/18 05:31:51;;;;;;;0.00;0.00;;;;;;;;;;2084514;28;20022;-78
2023/02/18 05:33:10;;;;;;;0.03;0.03;;;;;;;;;;2085483;28;20389;-78
2023/02/18 05:34:29;;;;;;;0.00;0.00;;;;;;;;;;2082321;28;20037;-78
2023/02/18 05:35:48;;;;;;;0.13;0.10;;;;;;;;;;2084042;28;20033;-77
2023/02/18 05:37:07;;;;;;;0.35;0.10;;;;;;;;;;2082409;28;20033;-77
2023/02/18 05:38:26;;;;;;;1.08;0.10;;;;;;;;;;2083630;28;20474;-78
2023/02/18 05:39:49;;;;;;;0.05;0.05;;;;;;;;;;2087433;28;20036;-78
2023/02/18 05:41:08;;;;;;;0.10;0.10;;;;;;;;;;2088494;28;20026;-78
2023/02/18 05:42:27;;;;;;;0.10;0.10;;;;;;;;;;2081930;28;20111;-78
2023/02/18 05:45:23;;;;;;;0.25;0.20;;;;;;;;;;2083903;28;20030;-78
2023/02/18 05:46:42;;;;;;;0.10;0.10;;;;;;;;;;2085962;28;20096;-78
2023/02/18 05:48:01;;;;;;;0.30;0.10;;;;;;;;;;2083343;28;20038;-79
2023/02/18 05:49:20;;;;;;;0.10;0.10;;;;;;;;;;2083381;28;20033;-78
2023/02/18 05:50:40;;;;;;;0.10;0.10;;;;;;;;;;2088603;28;20111;-79
2023/02/18 05:51:59;;;;;;;0.10;0.10;;;;;;;;;;2086946;28;20105;-78
2023/02/18 05:53:19;;;;;;;0.08;0.08;;;;;;;;;;2081595;28;20022;-79
2023/02/18 05:54:38;;;;;;;0.10;0.10;;;;;;;;;;2081986;28;20033;-78
2023/02/18 05:55:57;;;;;;;0.00;0.00;;;;;;;;;;2083961;28;20025;-78
2023/02/18 05:57:16;;;;;;;0.00;0.00;;;;;;;;;;2079595;28;20532;-78
2023/02/18 05:58:35;;;;;;;0.00;0.00;;;;;;;;;;2082876;28;20029;-78
2023/02/18 05:59:54;;;;;;;0.10;0.10;;;;;;;;;;2084954;28;20034;-77
2023/02/18 06:01:13;;;;;;;0.00;0.00;;;;;;;;;;2083743;28;20060;-78
2023/02/18 06:02:32;;;;;;;0.10;0.00;;;;;;;;;;2084247;28;20026;-78
2023/02/18 06:03:51;;;;;;;0.00;0.00;;;;;;;;;;2082042;28;20108;-78
2023/02/18 06:05:10;;;;;;;0.00;0.00;;;;;;;;;;2082279;28;20041;-78
2023/02/18 06:06:29;;;;;;;0.00;0.00;;;;;;;;;;2089893;28;20029;-78
2023/02/18 06:07:48;;;;;;;0.00;0.00;;;;;;;;;;2087272;28;20055;-78
2023/02/18 06:09:07;;;;;;;0.00;0.00;;;;;;;;;;2082354;28;20038;-78
2023/02/18 06:10:25;;;;;;;0.05;0.05;;;;;;;;;;2082015;28;20018;-77
2023/02/18 06:11:45;;;;;;;0.52;0.08;;;;;;;;;;2084346;28;20033;-78
2023/02/18 06:13:03;;;;;;;0.22;0.00;;;;;;;;;;2083693;28;20492;-78
2023/02/18 06:14:22;;;;;;;0.10;0.10;;;;;;;;;;2084666;28;20040;-78
2023/02/18 06:15:41;;;;;;;0.00;0.00;;;;;;;;;;2083014;28;20031;-78
2023/02/18 06:17:00;;;;;;;0.10;0.10;;;;;;;;;;2082698;28;20029;-78
2023/02/18 06:18:20;;;;;;;0.20;0.00;;;;;;;;;;2085450;28;20029;-78
2023/02/18 06:19:39;;;;;;;0.20;0.10;;;;;;;;;;2082804;28;20401;-79
2023/02/18 06:20:57;;;;;;;0.10;0.10;;;;;;;;;;2082771;28;20534;-80
2023/02/18 06:22:17;;;;;;;0.00;0.00;;;;;;;;;;2084241;28;20025;-79
2023/02/18 06:23:35;;;;;;;0.00;0.00;;;;;;;;;;2083723;28;20081;-78
2023/02/18 06:24:54;;;;;;;0.10;0.10;;;;;;;;;;2084783;28;20025;-78
2023/02/18 06:26:13;;;;;;;0.00;0.00;;;;;;;;;;2083892;28;20021;-78
2023/02/18 06:27:32;;;;;;;0.00;0.00;;;;;;;;;;2082860;28;20032;-78
2023/02/18 06:28:51;;;;;;;0.00;0.00;;;;;;;;;;2082606;28;20081;-78
2023/02/18 06:30:10;;;;;;;0.20;0.10;;;;;;;;;;2085552;28;20057;-78
2023/02/18 06:31:29;;;;;;;0.00;0.00;;;;;;;;;;2084251;28;20037;-78
2023/02/18 06:32:48;;;;;;;0.10;0.10;;;;;;;;;;2085398;28;20093;-78
2023/02/18 06:34:07;;;;;;;0.00;0.00;;;;;;;;;;2083276;28;20662;-78
2023/02/18 06:35:26;;;;;;;0.00;0.00;;;;;;;;;;2084646;28;20045;-78
2023/02/18 06:36:45;;;;;;;0.25;0.00;;;;;;;;;;2081195;28;20037;-77
2023/02/18 06:38:04;;;;;;;0.10;0.10;;;;;;;;;;2083082;28;20045;-78
2023/02/18 06:39:23;;;;;;;0.05;0.05;;;;;;;;;;2075032;28;20046;-78
2023/02/18 06:40:44;;;;;;;9.10;0.20;;;;;;;;;;2077244;28;20034;-78
2023/02/18 06:42:03;;;;;;;0.00;0.00;;;;;;;;;;2080508;28;20243;-78
2023/02/18 06:43:22;;;;;;;0.00;0.00;;;;;;;;;;2082078;28;20021;-78
2023/02/18 06:44:41;;;;;;;1.27;0.00;;;;;;;;;;2080921;28;20025;-77
2023/02/18 06:46:01;;;;;;;0.90;0.10;;;;;;;;;;2083827;28;20013;-77
2023/02/18 06:47:19;;;;;;;0.00;0.00;;;;;;;;;;2081245;28;20030;-77
2023/02/18 06:48:38;;;;;;;0.10;0.10;;;;;;;;;;2081852;28;20083;-77
2023/02/18 06:49:57;;;;;;;0.20;0.20;;;;;;;;;;2082584;28;20033;-77
2023/02/18 06:51:23;;;;;;;0.28;0.00;;;;;;;;;;2102179;27;20402;-68
2023/02/18 06:52:42;;;;;;;0.00;0.00;;;;;;;;;;2102146;28;20317;-71
2023/02/18 06:54:01;;;;;;;0.00;0.00;;;;;;;;;;2101756;28;20052;-69
2023/02/18 06:55:20;;;;;;;0.00;0.00;;;;;;;;;;2101255;28;20505;-68
2023/02/18 06:56:39;;;;;;;0.00;0.00;;;;;;;;;;2102498;28;20481;-69
2023/02/18 06:57:58;;;;;;;0.00;0.00;;;;;;;;;;2101704;28;20032;-68
2023/02/18 06:59:17;;;;;;;0.00;0.00;;;;;;;;;;2102224;28;20032;-69
2023/02/18 07:00:36;;;;;;;0.10;0.10;;;;;;;;;;2101926;28;20497;-69
2023/02/18 07:01:55;;;;;;;0.00;0.00;;;;;;;;;;2103315;28;20041;-69
2023/02/18 07:03:14;;;;;;;0.10;0.10;;;;;;;;;;2101851;28;20025;-69
2023/02/18 07:04:33;;;;;;;0.00;0.00;;;;;;;;;;2100749;28;20060;-69
2023/02/18 07:05:52;;;;;;;0.00;0.00;;;;;;;;;;2102321;28;20032;-69
2023/02/18 07:07:11;;;;;;;0.00;0.00;;;;;;;;;;2102052;28;20389;-69
2023/02/18 07:08:31;;;;;;;0.10;0.10;;;;;;;;;;2101607;28;20040;-69
2023/02/18 07:09:50;;;;;;;0.00;0.00;;;;;;;;;;2092195;28;20409;-69
2023/02/18 07:11:09;;;;;;;0.10;0.10;;;;;;;;;;2097498;28;20032;-69
2023/02/18 07:12:28;;;;;;;0.00;0.00;;;;;;;;;;2101900;28;20028;-69
2023/02/18 07:13:47;;;;;;;0.00;0.00;;;;;;;;;;2098982;28;20025;-69
2023/02/18 07:15:06;;;;;;;0.00;0.00;;;;;;;;;;2100692;28;20024;-69
2023/02/18 07:16:25;;;;;;;0.10;0.10;;;;;;;;;;2093961;28;20417;-69
2023/02/18 07:17:44;;;;;;;0.10;0.10;;;;;;;;;;2098723;28;20033;-69
2023/02/18 07:19:03;;;;;;;0.00;0.00;;;;;;;;;;2099906;28;20032;-69
2023/02/18 07:20:22;;;;;;;0.10;0.10;;;;;;;;;;2098693;28;20059;-68
2023/02/18 07:21:41;;;;;;;0.10;0.03;;;;;;;;;;2101901;28;20489;-69
2023/02/18 07:23:00;;;;;;;0.68;0.13;;;;;;;;;;2099708;28;20020;-69
2023/02/18 07:24:19;;;;;;;0.03;0.03;;;;;;;;;;2102355;28;20024;-69
2023/02/18 07:25:39;;;;;;;0.10;0.10;;;;;;;;;;2100047;28;20032;-69
2023/02/18 07:26:58;;;;;;;0.05;0.00;;;;;;;;;;2101025;28;20028;-70
2023/02/18 07:28:17;;;;;;;0.05;0.05;;;;;;;;;;2102883;28;20032;-69
2023/02/18 07:29:36;;;;;;;4.35;0.10;;;;;;;;;;2101223;28;20361;-69
2023/02/18 07:30:55;;;;;;;0.00;0.00;;;;;;;;;;2099377;28;20041;-69
2023/02/18 07:32:15;;;;;;;0.00;0.00;;;;;;;;;;2102136;28;20488;-69
2023/02/18 07:33:34;;;;;;;0.10;0.10;;;;;;;;;;2101974;28;20032;-68
2023/02/18 07:34:53;;;;;;;0.00;0.00;;;;;;;;;;2100676;28;20024;-68
2023/02/18 07:36:12;;;;;;;1.00;0.00;;;;;;;;;;2102044;28;20028;-69
2023/02/18 07:37:31;;;;;;;1.10;0.15;;;;;;;;;;2101707;28;20020;-68
2023/02/18 07:38:50;;;;;;;0.10;0.10;;;;;;;;;;2101276;28;20067;-69
2023/02/18 07:40:11;;;;;;;0.10;0.10;;;;;;;;;;2092272;28;20017;-69
2023/02/18 07:41:29;;;;;;;0.10;0.10;;;;;;;;;;2098123;28;20532;-69
2023/02/18 07:42:48;;;;;;;0.00;0.00;;;;;;;;;;2100418;28;20029;-69
2023/02/18 07:44:07;;;;;;;0.20;0.20;;;;;;;;;;2103009;28;20044;-69
2023/02/18 07:45:26;;;;;;;0.10;0.10;;;;;;;;;;2097181;28;20037;-68
2023/02/18 07:46:45;;;;;;;1.20;0.22;;;;;;;;;;2098852;28;20029;-68
2023/02/18 07:48:04;;;;;;;0.10;0.05;;;;;;;;;;2101349;28;20581;-69
2023/02/18 07:49:23;;;;;;;0.10;0.10;;;;;;;;;;2093638;28;20115;-68
2023/02/18 07:50:43;;;;;;;0.10;0.10;;;;;;;;;;2097724;28;20492;-68
2023/02/18 07:52:02;;;;;;;0.00;0.00;;;;;;;;;;2109155;28;20029;-68
2023/02/18 07:53:21;;;;;;;0.75;0.28;;;;;;;;;;2103113;28;20024;-69
2023/02/18 07:54:39;;;;;;;0.10;0.10;;;;;;;;;;2090776;28;20572;-68
2023/02/18 07:55:59;;;;;;;0.00;0.00;;;;;;;;;;2096798;28;20028;-69
2023/02/18 07:57:17;;;;;;;0.10;0.10;;;;;;;;;;2102093;28;20354;-69
2023/02/18 07:58:37;;;;;;;0.10;0.10;;;;;;;;;;2101341;28;20020;-69
2023/02/18 07:59:56;;;;;;;0.20;0.20;;;;;;;;;;2101896;28;20496;-68
2023/02/18 08:01:15;;;;;;;0.10;0.10;;;;;;;;;;2102015;28;20044;-68
2023/02/18 08:02:34;;;;;;;0.10;0.10;;;;;;;;;;2088571;28;20493;-69
2023/02/18 08:03:53;;;;;;;0.10;0.10;;;;;;;;;;2091759;28;20036;-69
2023/02/18 08:05:12;;;;;;;0.20;0.20;;;;;;;;;;2096125;28;20032;-70